Lake Hamilton, Florida
Current Conditions -  °F | °C
As of 10:53 PM on Thursday 20 Nov 2014 (Local Time) from KGIF Reporting Station
Clear Clear  
Wind Chill: 53°   Ceiling: Unl
Heat Index: 53°   Visibility: 10mi
Dew Point: 45°   Wind: 9mph
Humidity: 74%   Direction: 20°NNE
Pressure: 30.24"   Gusts: NA
Location:  28.04°N, 81.63°W
Report Text: KGIF 210353Z AUTO 02008KT 10SM CLR 12/07 A3024 RMK AO2 SLP239 T01170072
Loading
Personal Weather Stations






























Interactive Weather Map New forecast layout! Learn more

10-Day Weather Forecast

Advertisements
Track Severe Weather on mobile